Cygnet Bay, Australia
Current Conditions -  °F | °C
As of 12:00 PM on Friday 31 Oct 2014 (Local Time) from YCIN Reporting Station
Clear Clear  
Wind Chill: 100°   Ceiling: Unl
Heat Index: 106°   Visibility: NA
Dew Point: 68°   Wind: 10mph
Humidity: 35%   Direction: 340°NNW
Pressure: 29.68"   Gusts: NA
Location:  16.44°S, 123.01°E
Report Text: YCIN 310400Z AUTO 34009KT 290V360 //// // NCD 38/20 Q1005
Loading
Personal Weather Stations






























Interactive Weather Map
Tropical Storm Tracking
New forecast layout! Learn more

10-Day Weather Forecast

Advertisements
Track Severe Weather on mobile